createdAt,value
2023-02-16T00:00:26.392Z,1.95
2023-02-16T00:02:31.190Z,1.98
2023-02-16T00:04:36.108Z,1.96
2023-02-16T00:06:40.925Z,1.96
2023-02-16T00:08:50.289Z,1.93
2023-02-16T00:11:12.215Z,1.88
2023-02-16T00:13:40.143Z,1.87
2023-02-16T00:15:45.123Z,1.82
2023-02-16T00:17:49.938Z,1.79
2023-02-16T00:19:57.422Z,1.75
2023-02-16T00:22:03.496Z,1.78
2023-02-16T00:24:09.100Z,1.74
2023-02-16T00:26:21.204Z,1.66
2023-02-16T00:28:26.223Z,1.63
2023-02-16T00:30:31.092Z,1.63
2023-02-16T00:32:35.922Z,1.61
2023-02-16T00:34:43.883Z,1.61
2023-02-16T00:36:48.698Z,1.52
2023-02-16T00:38:53.851Z,1.49
2023-02-16T00:40:58.627Z,1.49
2023-02-16T00:43:06.782Z,1.50
2023-02-16T00:45:18.382Z,1.50
2023-02-16T00:47:26.006Z,1.40
2023-02-16T00:49:30.822Z,1.39
2023-02-16T00:51:35.714Z,1.30
2023-02-16T00:53:40.482Z,1.31
2023-02-16T00:55:46.737Z,1.27
2023-02-16T00:57:57.860Z,1.22
2023-02-16T01:00:10.878Z,1.20
2023-02-16T01:02:15.694Z,1.13
2023-02-16T01:04:26.290Z,1.15
2023-02-16T01:06:43.668Z,1.11
2023-02-16T01:09:01.004Z,1.03
2023-02-16T01:11:11.053Z,0.97
2023-02-16T01:13:19.514Z,0.99
2023-02-16T01:15:28.790Z,1.01
2023-02-16T01:17:33.655Z,1.01
2023-02-16T01:19:38.395Z,0.95
2023-02-16T01:21:43.544Z,0.90
2023-02-16T01:23:48.367Z,0.88
2023-02-16T01:25:53.588Z,0.89
2023-02-16T01:27:58.215Z,0.90
2023-02-16T01:30:03.158Z,0.95
2023-02-16T01:32:10.668Z,0.95
2023-02-16T01:34:15.982Z,1.00
2023-02-16T01:36:27.064Z,1.03
2023-02-16T01:38:32.173Z,1.03
2023-02-16T01:40:44.159Z,1.03
2023-02-16T01:42:56.342Z,1.00
2023-02-16T01:45:04.590Z,1.03
2023-02-16T01:47:21.613Z,1.02
2023-02-16T01:49:26.429Z,1.01
2023-02-16T01:51:36.280Z,1.01
2023-02-16T01:53:45.205Z,0.98
2023-02-16T01:55:57.091Z,0.96
2023-02-16T01:58:04.231Z,0.93
2023-02-16T02:00:17.513Z,0.98
2023-02-16T02:02:28.612Z,0.93
2023-02-16T02:04:55.065Z,0.95
2023-02-16T02:06:59.831Z,0.96
2023-02-16T02:09:08.964Z,1.01
2023-02-16T02:11:20.618Z,1.02
2023-02-16T02:13:38.957Z,1.01
2023-02-16T02:15:43.758Z,0.99
2023-02-16T02:17:51.717Z,0.94
2023-02-16T02:20:09.605Z,0.90
2023-02-16T02:22:48.130Z,0.80
2023-02-16T02:25:31.472Z,0.78
2023-02-16T02:27:43.542Z,0.72
2023-02-16T02:30:14.192Z,0.66
2023-02-16T02:32:29.510Z,0.66
2023-02-16T02:34:44.061Z,0.68
2023-02-16T02:36:57.177Z,0.63
2023-02-16T02:39:15.443Z,0.61
2023-02-16T02:41:47.009Z,0.61
2023-02-16T02:43:59.831Z,0.67
2023-02-16T02:46:10.428Z,0.67
2023-02-16T02:48:15.522Z,0.68
2023-02-16T02:50:40.500Z,0.71
2023-02-16T02:52:46.249Z,0.62
2023-02-16T02:55:05.519Z,0.53
2023-02-16T02:57:30.511Z,0.53
2023-02-16T02:59:55.233Z,0.50
2023-02-16T03:02:04.369Z,0.50
2023-02-16T03:04:11.849Z,0.54
2023-02-16T03:06:22.095Z,0.60
2023-02-16T03:08:30.311Z,0.55
2023-02-16T03:10:51.076Z,0.51
2023-02-16T03:12:53.813Z,0.52
2023-02-16T03:15:04.225Z,0.53
2023-02-16T03:17:25.855Z,0.49
2023-02-16T03:19:43.179Z,0.42
2023-02-16T03:22:01.156Z,0.38
2023-02-16T03:24:22.818Z,0.37
2023-02-16T03:26:42.068Z,0.30
2023-02-16T03:29:01.546Z,0.33
2023-02-16T03:31:11.101Z,0.28
2023-02-16T03:33:16.190Z,0.29
2023-02-16T03:35:21.153Z,0.30
2023-02-16T03:37:26.063Z,0.27
2023-02-16T03:39:31.841Z,0.27
2023-02-16T03:41:41.021Z,0.25
2023-02-16T03:43:45.834Z,0.19
2023-02-16T03:45:50.723Z,0.17
2023-02-16T03:47:58.370Z,0.21
2023-02-16T03:50:03.167Z,0.18
2023-02-16T03:52:08.367Z,0.25
2023-02-16T03:54:13.495Z,0.30
2023-02-16T03:56:18.278Z,0.34
2023-02-16T03:58:26.409Z,0.38
2023-02-16T04:00:31.414Z,0.43
2023-02-16T04:02:36.421Z,0.46
2023-02-16T04:04:43.890Z,0.52
2023-02-16T04:06:48.681Z,0.59
2023-02-16T04:08:54.924Z,0.59
2023-02-16T04:11:00.487Z,0.62
2023-02-16T04:13:02.774Z,0.64
2023-02-16T04:15:10.632Z,0.69
2023-02-16T04:17:15.439Z,0.66
2023-02-16T04:19:20.418Z,0.70
2023-02-16T04:21:27.768Z,0.68
2023-02-16T04:23:32.601Z,0.70
2023-02-16T04:25:37.779Z,0.68
2023-02-16T04:27:42.356Z,0.66
2023-02-16T04:29:47.198Z,0.64
2023-02-16T04:31:53.835Z,0.68
2023-02-16T04:33:58.724Z,0.70
2023-02-16T04:36:03.591Z,0.71
2023-02-16T04:38:11.037Z,0.74
2023-02-16T04:40:17.920Z,0.71
2023-02-16T04:42:22.676Z,0.74
2023-02-16T04:44:27.593Z,0.71
2023-02-16T04:46:32.391Z,0.68
2023-02-16T04:48:37.196Z,0.65
2023-02-16T04:50:42.032Z,0.67
2023-02-16T04:52:46.893Z,0.70
2023-02-16T04:54:57.315Z,0.64
2023-02-16T04:57:02.405Z,0.63
2023-02-16T04:59:07.169Z,0.65
2023-02-16T05:01:12.054Z,0.65
2023-02-16T05:03:16.965Z,0.63
2023-02-16T05:05:21.878Z,0.63
2023-02-16T05:07:26.649Z,0.61
2023-02-16T05:09:31.549Z,0.55
2023-02-16T05:11:51.366Z,0.53
2023-02-16T05:14:08.663Z,0.56
2023-02-16T05:16:14.760Z,0.58
2023-02-16T05:18:19.776Z,0.60
2023-02-16T05:20:45.181Z,0.67
2023-02-16T05:22:49.968Z,0.66
2023-02-16T05:24:55.138Z,0.68
2023-02-16T05:27:02.538Z,0.69
2023-02-16T05:29:07.682Z,0.63
2023-02-16T05:31:12.318Z,0.59
2023-02-16T05:33:17.238Z,0.55
2023-02-16T05:35:22.120Z,0.48
2023-02-16T05:37:26.860Z,0.49
2023-02-16T05:39:31.880Z,0.51
2023-02-16T05:41:36.673Z,0.53
2023-02-16T05:43:44.321Z,0.58
2023-02-16T05:45:49.784Z,0.62
2023-02-16T05:47:55.202Z,0.66
2023-02-16T05:49:59.962Z,0.72
2023-02-16T05:52:04.850Z,0.76
2023-02-16T05:54:10.774Z,0.74
2023-02-16T05:56:16.024Z,0.77
2023-02-16T05:58:20.561Z,0.73
2023-02-16T06:00:28.357Z,0.73
2023-02-16T06:02:33.186Z,0.73
2023-02-16T06:04:38.296Z,0.74
2023-02-16T06:06:44.039Z,0.78
2023-02-16T06:08:49.092Z,0.80
2023-02-16T06:10:55.205Z,0.79
2023-02-16T06:13:00.135Z,0.78
2023-02-16T06:15:04.994Z,0.75
2023-02-16T06:17:12.446Z,0.78
2023-02-16T06:19:18.066Z,0.76
2023-02-16T06:21:23.089Z,0.76
2023-02-16T06:23:27.934Z,0.77
2023-02-16T06:25:32.900Z,0.78
2023-02-16T06:27:37.719Z,0.75
2023-02-16T06:29:42.617Z,0.76
2023-02-16T06:31:47.506Z,0.75
2023-02-16T06:34:03.822Z,0.78
2023-02-16T06:36:10.550Z,0.75
2023-02-16T06:38:15.435Z,0.80
2023-02-16T06:40:20.571Z,0.81
2023-02-16T06:42:25.488Z,0.82
2023-02-16T06:44:30.305Z,0.83
2023-02-16T06:46:35.561Z,0.81
2023-02-16T06:48:40.465Z,0.78
2023-02-16T06:50:47.905Z,0.76
2023-02-16T06:52:52.659Z,0.76
2023-02-16T06:55:00.826Z,0.79
2023-02-16T06:57:05.641Z,0.75
2023-02-16T06:59:10.837Z,0.73
2023-02-16T07:01:15.449Z,0.74
2023-02-16T07:03:20.357Z,0.72
2023-02-16T07:05:25.259Z,0.70
2023-02-16T07:07:32.788Z,0.72
2023-02-16T07:09:39.158Z,0.71
2023-02-16T07:11:44.104Z,0.72
2023-02-16T07:13:49.102Z,0.76
2023-02-16T07:15:55.984Z,0.77
2023-02-16T07:18:00.862Z,0.78
2023-02-16T07:20:07.166Z,0.81
2023-02-16T07:22:11.931Z,0.81
2023-02-16T07:24:19.354Z,0.82
2023-02-16T07:26:24.239Z,0.85
2023-02-16T07:28:29.307Z,0.84
2023-02-16T07:30:34.003Z,0.84
2023-02-16T07:32:38.825Z,0.81
2023-02-16T07:34:45.941Z,0.75
2023-02-16T07:36:50.803Z,0.78
2023-02-16T07:38:55.604Z,0.77
2023-02-16T07:41:03.436Z,0.78
2023-02-16T07:43:09.395Z,0.79
2023-02-16T07:45:14.305Z,0.79
2023-02-16T07:47:19.128Z,0.82
2023-02-16T07:49:24.428Z,0.87
2023-02-16T07:51:31.579Z,0.93
2023-02-16T07:53:36.419Z,0.97
2023-02-16T07:55:42.272Z,1.04
2023-02-16T07:57:54.840Z,1.06
2023-02-16T07:59:59.888Z,1.06
2023-02-16T08:02:04.581Z,1.04
2023-02-16T08:04:09.398Z,1.01
2023-02-16T08:06:14.752Z,1.02
2023-02-16T08:08:19.529Z,1.07
2023-02-16T08:10:24.339Z,1.09
2023-02-16T08:12:29.125Z,1.01
2023-02-16T08:14:36.586Z,1.03
2023-02-16T08:16:41.726Z,1.03
2023-02-16T08:18:46.265Z,1.06
2023-02-16T08:21:03.959Z,1.09
2023-02-16T08:23:10.475Z,1.16
2023-02-16T08:25:16.200Z,1.25
2023-02-16T08:27:21.397Z,1.33
2023-02-16T08:29:26.990Z,1.36
2023-02-16T08:31:38.297Z,1.38
2023-02-16T08:33:46.757Z,1.45
2023-02-16T08:35:57.084Z,1.50
2023-02-16T08:38:02.532Z,1.50
2023-02-16T08:40:08.378Z,1.55
2023-02-16T08:42:14.455Z,1.61
2023-02-16T08:44:20.295Z,1.67
2023-02-16T08:46:25.747Z,1.73
2023-02-16T08:48:36.521Z,1.78
2023-02-16T08:50:41.347Z,1.83
2023-02-16T08:52:47.181Z,1.87
2023-02-16T08:54:53.005Z,1.95
2023-02-16T08:57:00.087Z,1.98
2023-02-16T08:59:05.372Z,2.00
2023-02-16T09:01:11.941Z,2.03
2023-02-16T09:03:19.379Z,2.14
2023-02-16T09:05:28.141Z,2.21
2023-02-16T09:07:35.067Z,2.20
2023-02-16T09:09:41.774Z,2.31
2023-02-16T09:11:48.568Z,2.46
2023-02-16T09:13:54.026Z,2.55
2023-02-16T09:16:05.347Z,2.63
2023-02-16T09:18:12.654Z,2.71
2023-02-16T09:20:17.817Z,2.82
2023-02-16T09:22:25.173Z,2.91
2023-02-16T09:24:30.363Z,3.01
2023-02-16T09:26:37.079Z,3.00
2023-02-16T09:28:43.467Z,3.06
2023-02-16T09:30:48.937Z,3.15
2023-02-16T09:32:56.843Z,3.27
2023-02-16T09:35:01.686Z,3.35
2023-02-16T09:37:06.591Z,3.47
2023-02-16T09:39:14.159Z,3.60
2023-02-16T09:41:26.509Z,3.70
2023-02-16T09:43:41.387Z,3.83
2023-02-16T09:45:50.415Z,3.96
2023-02-16T09:47:56.567Z,4.10
2023-02-16T09:50:03.994Z,4.21
2023-02-16T09:52:20.774Z,4.34
2023-02-16T09:54:38.054Z,4.38
2023-02-16T09:56:49.547Z,4.46
2023-02-16T09:59:00.203Z,4.53
2023-02-16T10:01:15.098Z,4.63
2023-02-16T10:03:39.659Z,4.72
2023-02-16T10:05:50.606Z,4.84
2023-02-16T10:08:03.170Z,4.91
2023-02-16T10:10:17.455Z,4.97
2023-02-16T10:12:26.455Z,5.11
2023-02-16T10:14:37.262Z,5.21
2023-02-16T10:16:46.035Z,5.29
2023-02-16T10:18:56.851Z,5.40
2023-02-16T10:21:05.493Z,5.50
2023-02-16T10:23:26.963Z,5.59
2023-02-16T10:25:43.699Z,5.72
2023-02-16T10:27:53.632Z,5.78
2023-02-16T10:29:59.035Z,5.85
2023-02-16T10:32:16.762Z,5.97
2023-02-16T10:34:24.758Z,6.01
2023-02-16T10:36:40.143Z,6.11
2023-02-16T10:38:54.086Z,6.18
2023-02-16T10:41:06.642Z,6.24
2023-02-16T10:43:20.667Z,6.34
2023-02-16T10:45:30.587Z,6.41
2023-02-16T10:47:39.465Z,6.50
2023-02-16T10:49:44.275Z,6.60
2023-02-16T10:51:52.898Z,6.71
2023-02-16T10:54:02.508Z,6.81
2023-02-16T10:56:30.082Z,6.94
2023-02-16T10:58:42.124Z,7.05
2023-02-16T11:00:55.718Z,7.14
2023-02-16T11:03:05.438Z,7.20
2023-02-16T11:05:32.744Z,7.34
2023-02-16T11:07:37.923Z,7.37
2023-02-16T11:09:43.628Z,7.37
2023-02-16T11:11:51.205Z,7.44
2023-02-16T11:14:02.825Z,7.58
2023-02-16T11:16:14.132Z,7.67
2023-02-16T11:18:31.988Z,7.83
2023-02-16T11:20:56.036Z,7.91
2023-02-16T11:23:16.931Z,8.02
2023-02-16T11:25:27.608Z,8.07
2023-02-16T11:27:35.427Z,8.20
2023-02-16T11:29:40.683Z,8.30
2023-02-16T11:31:45.832Z,8.45
2023-02-16T11:34:05.889Z,8.60
2023-02-16T11:36:22.998Z,8.71
2023-02-16T11:38:35.611Z,8.83
2023-02-16T11:40:40.483Z,8.97
2023-02-16T11:42:52.779Z,9.06
2023-02-16T11:45:02.926Z,9.15
2023-02-16T11:47:11.964Z,9.25
2023-02-16T11:49:33.329Z,9.26
2023-02-16T11:51:39.003Z,9.28
2023-02-16T11:53:46.072Z,9.29
2023-02-16T11:55:53.191Z,9.35
2023-02-16T11:58:17.464Z,9.46
2023-02-16T12:00:24.960Z,9.46
2023-02-16T12:02:58.256Z,9.45
2023-02-16T12:05:15.024Z,9.43
2023-02-16T12:07:28.201Z,9.51
2023-02-16T12:09:39.604Z,9.52
2023-02-16T12:11:55.056Z,9.60
2023-02-16T12:14:15.909Z,9.66
2023-02-16T12:16:30.961Z,9.75
2023-02-16T12:18:46.721Z,9.82
2023-02-16T12:20:55.491Z,9.79
2023-02-16T12:23:08.197Z,9.80
2023-02-16T12:25:26.985Z,9.85
2023-02-16T12:27:40.681Z,9.88
2023-02-16T12:29:56.498Z,9.90
2023-02-16T12:32:06.954Z,9.88
2023-02-16T12:34:26.586Z,9.94
2023-02-16T12:36:57.388Z,10.03
2023-02-16T12:39:10.843Z,10.06
2023-02-16T12:41:27.788Z,10.14
2023-02-16T12:43:38.801Z,10.19
2023-02-16T12:45:49.698Z,10.27
2023-02-16T12:48:00.508Z,10.33
2023-02-16T12:50:10.245Z,10.38
2023-02-16T12:52:26.930Z,10.37
2023-02-16T12:54:35.491Z,10.36
2023-02-16T12:56:45.456Z,10.42
2023-02-16T12:58:58.164Z,10.35
2023-02-16T13:01:14.684Z,10.35
2023-02-16T13:03:37.283Z,10.49
2023-02-16T13:05:42.322Z,10.57
2023-02-16T13:07:50.300Z,10.61
2023-02-16T13:10:03.175Z,10.62
2023-02-16T13:12:18.049Z,10.64
2023-02-16T13:14:26.323Z,10.58
2023-02-16T13:16:43.611Z,10.55
2023-02-16T13:18:52.332Z,10.54
2023-02-16T13:21:04.052Z,10.62
2023-02-16T13:23:30.519Z,10.68
2023-02-16T13:25:56.858Z,10.68
2023-02-16T13:28:16.804Z,10.64
2023-02-16T13:30:48.538Z,10.64
2023-02-16T13:33:17.073Z,10.70
2023-02-16T13:35:42.956Z,10.76
2023-02-16T13:38:04.062Z,10.82
2023-02-16T13:40:38.771Z,10.85
2023-02-16T13:43:09.036Z,10.80
2023-02-16T13:45:18.327Z,10.72
2023-02-16T13:47:29.442Z,10.72
2023-02-16T13:49:43.038Z,10.77
2023-02-16T13:51:50.048Z,10.86
2023-02-16T13:53:59.359Z,10.85
2023-02-16T13:56:22.764Z,10.87
2023-02-16T13:58:34.039Z,10.90
2023-02-16T14:00:42.361Z,10.91
2023-02-16T14:02:59.906Z,10.84
2023-02-16T14:05:14.513Z,10.87
2023-02-16T14:07:38.072Z,10.94
2023-02-16T14:09:50.860Z,10.96
2023-02-16T14:12:05.622Z,10.93
2023-02-16T14:14:31.317Z,10.90
2023-02-16T14:16:37.147Z,10.93
2023-02-16T14:18:46.706Z,10.97
2023-02-16T14:21:04.334Z,11.01
2023-02-16T14:23:34.476Z,10.96
2023-02-16T14:25:43.199Z,10.96
2023-02-16T14:27:51.600Z,10.97
2023-02-16T14:30:02.847Z,11.03
2023-02-16T14:32:19.248Z,11.08
2023-02-16T14:34:28.387Z,11.13
2023-02-16T14:36:36.040Z,11.21
2023-02-16T14:38:47.353Z,11.36
2023-02-16T14:40:55.747Z,11.37
2023-02-16T14:43:07.174Z,11.45
2023-02-16T14:45:32.900Z,11.49
2023-02-16T14:47:43.687Z,11.50
2023-02-16T14:50:14.306Z,11.49
2023-02-16T14:53:00.597Z,11.50
2023-02-16T14:55:39.384Z,11.57
2023-02-16T14:57:50.764Z,11.60
2023-02-16T15:00:02.500Z,11.59
2023-02-16T15:02:29.676Z,11.68
2023-02-16T15:04:38.357Z,11.62
2023-02-16T15:06:46.904Z,11.55
2023-02-16T15:08:58.961Z,11.53
2023-02-16T15:11:18.122Z,11.50
2023-02-16T15:13:24.400Z,11.47
2023-02-16T15:15:38.363Z,11.48
2023-02-16T15:17:47.296Z,11.45
2023-02-16T15:19:52.259Z,11.39
2023-02-16T15:22:11.484Z,11.38
2023-02-16T15:24:26.879Z,11.43
2023-02-16T15:26:38.340Z,11.37
2023-02-16T15:28:43.761Z,11.30
2023-02-16T15:30:53.133Z,11.34
2023-02-16T15:33:01.516Z,11.37
2023-02-16T15:35:14.476Z,11.41
2023-02-16T15:37:27.630Z,11.40
2023-02-16T15:39:48.229Z,11.45
2023-02-16T15:42:23.809Z,11.51
2023-02-16T15:44:34.419Z,11.54
2023-02-16T15:46:42.185Z,11.58
2023-02-16T15:48:47.241Z,11.59
2023-02-16T15:50:55.959Z,11.60
2023-02-16T15:53:00.852Z,11.60
2023-02-16T15:55:09.698Z,11.50
2023-02-16T15:57:24.537Z,11.55
2023-02-16T15:59:35.874Z,11.57
2023-02-16T16:01:40.916Z,11.54
2023-02-16T16:03:48.419Z,11.53
2023-02-16T16:06:08.632Z,11.49
2023-02-16T16:08:17.439Z,11.42
2023-02-16T16:10:26.525Z,11.37
2023-02-16T16:12:34.213Z,11.24
2023-02-16T16:14:43.382Z,11.15
2023-02-16T16:16:48.803Z,11.11
2023-02-16T16:18:56.735Z,11.15
2023-02-16T16:21:03.225Z,11.09
2023-02-16T16:23:24.420Z,11.08
2023-02-16T16:25:40.133Z,11.09
2023-02-16T16:27:50.280Z,10.98
2023-02-16T16:29:57.457Z,10.95
2023-02-16T16:32:02.762Z,10.90
2023-02-16T16:34:08.159Z,10.83
2023-02-16T16:36:14.882Z,10.78
2023-02-16T16:38:28.532Z,10.73
2023-02-16T16:40:36.797Z,10.72
2023-02-16T16:42:41.982Z,10.72
2023-02-16T16:44:55.926Z,10.63
2023-02-16T16:47:13.930Z,10.60
2023-02-16T16:49:20.630Z,10.62
2023-02-16T16:51:41.260Z,10.67
2023-02-16T16:53:55.623Z,10.70
2023-02-16T16:56:02.278Z,10.72
2023-02-16T16:58:09.994Z,10.75
2023-02-16T17:00:21.865Z,10.75
2023-02-16T17:02:26.722Z,10.75
2023-02-16T17:04:31.474Z,10.74
2023-02-16T17:06:36.346Z,10.74
2023-02-16T17:08:41.447Z,10.71
2023-02-16T17:10:46.138Z,10.64
2023-02-16T17:12:56.672Z,10.62
2023-02-16T17:15:03.273Z,10.60
2023-02-16T17:17:14.552Z,10.58
2023-02-16T17:19:21.217Z,10.56
2023-02-16T17:21:26.232Z,10.59
2023-02-16T17:23:31.061Z,10.57
2023-02-16T17:25:37.891Z,10.53
2023-02-16T17:27:42.772Z,10.50
2023-02-16T17:29:47.540Z,10.48
2023-02-16T17:31:52.557Z,10.45
2023-02-16T17:34:00.088Z,10.44
2023-02-16T17:36:07.358Z,10.45
2023-02-16T17:38:13.974Z,10.46
2023-02-16T17:40:22.176Z,10.45
2023-02-16T17:42:28.301Z,10.45
2023-02-16T17:44:33.142Z,10.43
2023-02-16T17:46:37.979Z,10.39
2023-02-16T17:48:43.166Z,10.37
2023-02-16T17:50:51.373Z,10.31
2023-02-16T17:52:57.638Z,10.26
2023-02-16T17:55:02.466Z,10.25
2023-02-16T17:57:07.494Z,10.21
2023-02-16T17:59:15.519Z,10.20
2023-02-16T18:01:22.456Z,10.19
2023-02-16T18:03:27.970Z,10.21
2023-02-16T18:05:32.991Z,10.22
2023-02-16T18:07:40.410Z,10.24
2023-02-16T18:09:45.376Z,10.25
2023-02-16T18:11:50.338Z,10.24
2023-02-16T18:13:55.299Z,10.26
2023-02-16T18:16:01.850Z,10.27
2023-02-16T18:18:07.000Z,10.29
2023-02-16T18:20:15.514Z,10.29
2023-02-16T18:22:20.309Z,10.31
2023-02-16T18:24:27.870Z,10.33
2023-02-16T18:26:33.848Z,10.33
2023-02-16T18:28:38.721Z,10.33
2023-02-16T18:30:43.648Z,10.31
2023-02-16T18:32:48.752Z,10.32
2023-02-16T18:34:53.774Z,10.32
2023-02-16T18:37:00.909Z,10.33
2023-02-16T18:39:06.265Z,10.33
2023-02-16T18:41:15.070Z,10.33
2023-02-16T18:43:20.065Z,10.33
2023-02-16T18:45:25.136Z,10.33
2023-02-16T18:47:30.099Z,10.33
2023-02-16T18:49:35.032Z,10.32
2023-02-16T18:51:40.134Z,10.33
2023-02-16T18:53:45.246Z,10.33
2023-02-16T18:55:50.176Z,10.33
2023-02-16T18:57:59.199Z,10.34
2023-02-16T19:00:04.479Z,10.33
2023-02-16T19:02:09.366Z,10.28
2023-02-16T19:04:14.853Z,10.27
2023-02-16T19:06:19.753Z,10.25
2023-02-16T19:08:24.665Z,10.25
2023-02-16T19:10:30.137Z,10.25
2023-02-16T19:12:35.045Z,10.26
2023-02-16T19:14:46.867Z,10.27
2023-02-16T19:16:56.930Z,10.29
2023-02-16T19:19:01.832Z,10.29
2023-02-16T19:21:09.991Z,10.30
2023-02-16T19:23:14.795Z,10.28
2023-02-16T19:25:20.374Z,10.29
2023-02-16T19:27:25.163Z,10.27
2023-02-16T19:29:32.813Z,10.26
2023-02-16T19:31:40.392Z,10.23
2023-02-16T19:33:45.362Z,10.20
2023-02-16T19:35:53.762Z,10.19
2023-02-16T19:37:58.790Z,10.17
2023-02-16T19:40:03.850Z,10.17
2023-02-16T19:42:08.871Z,10.18
2023-02-16T19:44:14.788Z,10.18
2023-02-16T19:46:19.894Z,10.17
2023-02-16T19:48:27.307Z,10.19
2023-02-16T19:50:32.201Z,10.19
2023-02-16T19:52:38.326Z,10.21
2023-02-16T19:54:43.286Z,10.21
2023-02-16T19:56:48.251Z,10.22
2023-02-16T19:58:57.186Z,10.21
2023-02-16T20:01:02.159Z,10.22
2023-02-16T20:03:07.346Z,10.22
2023-02-16T20:05:15.850Z,10.22
2023-02-16T20:07:20.916Z,10.24
2023-02-16T20:09:28.315Z,10.23
2023-02-16T20:11:37.015Z,10.22
2023-02-16T20:13:41.939Z,10.23
2023-02-16T20:15:46.829Z,10.24
2023-02-16T20:17:51.900Z,10.24
2023-02-16T20:19:56.849Z,10.23
2023-02-16T20:22:07.088Z,10.20
2023-02-16T20:24:13.529Z,10.20
2023-02-16T20:26:20.802Z,10.19
2023-02-16T20:28:27.009Z,10.18
2023-02-16T20:30:31.947Z,10.18
2023-02-16T20:32:36.769Z,10.16
2023-02-16T20:34:41.640Z,10.16
2023-02-16T20:36:46.854Z,10.16
2023-02-16T20:38:55.292Z,10.15
2023-02-16T20:41:00.223Z,10.12
2023-02-16T20:43:05.267Z,10.11
2023-02-16T20:45:13.667Z,10.12
2023-02-16T20:47:18.615Z,10.12
2023-02-16T20:49:23.562Z,10.11
2023-02-16T20:51:28.605Z,10.10
2023-02-16T20:53:33.735Z,10.06
2023-02-16T20:55:41.437Z,10.02
2023-02-16T20:57:46.387Z,10.03
2023-02-16T20:59:51.320Z,10.05
2023-02-16T21:01:56.293Z,10.06
2023-02-16T21:04:02.940Z,10.09
2023-02-16T21:06:08.133Z,10.10
2023-02-16T21:08:12.840Z,10.07
2023-02-16T21:10:18.461Z,10.02
2023-02-16T21:12:26.009Z,10.01
2023-02-16T21:14:30.867Z,9.99
2023-02-16T21:16:35.792Z,10.00
2023-02-16T21:18:40.993Z,9.96
2023-02-16T21:20:46.342Z,9.88
2023-02-16T21:22:51.982Z,9.85
2023-02-16T21:24:56.577Z,9.78
2023-02-16T21:27:01.573Z,9.78
2023-02-16T21:29:09.054Z,9.81
2023-02-16T21:31:17.902Z,9.80
2023-02-16T21:33:23.066Z,9.80
2023-02-16T21:35:28.148Z,9.80
2023-02-16T21:37:32.965Z,9.78
2023-02-16T21:39:55.617Z,9.78
2023-02-16T21:42:00.415Z,9.79
2023-02-16T21:44:10.519Z,9.80
2023-02-16T21:46:15.483Z,9.81
2023-02-16T21:48:32.726Z,9.83
2023-02-16T21:50:39.641Z,9.83
2023-02-16T21:52:44.637Z,9.85
2023-02-16T21:55:01.878Z,9.88
2023-02-16T21:57:06.737Z,9.90
2023-02-16T21:59:16.604Z,9.93
2023-02-16T22:01:25.584Z,9.94
2023-02-16T22:03:30.568Z,9.94
2023-02-16T22:05:36.739Z,9.95
2023-02-16T22:07:41.560Z,9.96
2023-02-16T22:09:46.590Z,9.94
2023-02-16T22:11:52.259Z,9.94
2023-02-16T22:13:59.694Z,9.92
2023-02-16T22:16:11.797Z,9.94
2023-02-16T22:18:16.662Z,9.92
2023-02-16T22:20:22.652Z,9.91
2023-02-16T22:22:27.550Z,9.90
2023-02-16T22:24:32.350Z,9.91
2023-02-16T22:26:38.537Z,9.91
2023-02-16T22:28:43.395Z,9.90
2023-02-16T22:30:48.388Z,9.89
2023-02-16T22:32:55.787Z,9.85
2023-02-16T22:35:00.626Z,9.81
2023-02-16T22:37:05.472Z,9.76
2023-02-16T22:39:10.780Z,9.69
2023-02-16T22:41:15.530Z,9.60
2023-02-16T22:43:20.369Z,9.55
2023-02-16T22:45:25.182Z,9.51
2023-02-16T22:47:29.992Z,9.46
2023-02-16T22:49:37.362Z,9.44
2023-02-16T22:51:42.281Z,9.39
2023-02-16T22:53:47.983Z,9.33
2023-02-16T22:55:52.754Z,9.26
2023-02-16T22:57:59.101Z,9.20
2023-02-16T23:00:04.008Z,9.13
2023-02-16T23:02:08.904Z,9.10
2023-02-16T23:04:16.685Z,9.05
2023-02-16T23:06:26.222Z,9.01
2023-02-16T23:08:31.223Z,8.96
2023-02-16T23:10:36.063Z,8.92
2023-02-16T23:12:40.958Z,8.89
2023-02-16T23:14:45.788Z,8.85
2023-02-16T23:16:52.545Z,8.80
2023-02-16T23:19:01.358Z,8.78
2023-02-16T23:21:10.444Z,8.72
2023-02-16T23:23:17.994Z,8.65
2023-02-16T23:25:35.271Z,8.57
2023-02-16T23:27:40.061Z,8.50
2023-02-16T23:29:44.891Z,8.42
2023-02-16T23:31:50.310Z,8.35
2023-02-16T23:33:55.489Z,8.29
2023-02-16T23:36:00.612Z,8.25
2023-02-16T23:38:05.448Z,8.23
2023-02-16T23:40:13.751Z,8.23
2023-02-16T23:42:18.639Z,8.22
2023-02-16T23:44:23.453Z,8.25
2023-02-16T23:46:28.463Z,8.24
2023-02-16T23:48:33.993Z,8.30
2023-02-16T23:50:38.814Z,8.36
2023-02-16T23:52:43.639Z,8.41
2023-02-16T23:54:48.744Z,8.47
2023-02-16T23:56:56.321Z,8.50
2023-02-16T23:59:03.201Z,8.53
